Time;durP1;ratioP1;P1;durP2;ratioP2;P2;SDS_P1;SDS_P2;PMS_P1;PMS_P2;Temp;Humidity;BMP_temperature;BMP_pressure;BME280_temperature;BME280_humidity;BME280_pressure;Samples;Min_cycle;Max_cycle;Signal;HPM_P1;HPM_P2
2023/02/24 00:01:44;;;;;;;21.90;6.80;;;8.60;99.90;;;;;;5057124;28;20935;-74
2023/02/24 00:04:12;;;;;;;24.27;6.37;;;8.60;99.90;;;;;;5059280;28;20413;-72
2023/02/24 00:06:42;;;;;;;25.20;6.00;;;8.60;99.90;;;;;;5060826;28;20432;-72
2023/02/24 00:09:18;;;;;;;25.20;6.30;;;8.50;99.90;;;;;;5068917;28;20470;-73
2023/02/24 00:11:56;;;;;;;24.03;6.80;;;8.50;99.90;;;;;;5064682;28;20528;-73
2023/02/24 00:14:24;;;;;;;13.03;4.97;;;8.50;99.90;;;;;;5065062;28;20447;-73
2023/02/24 00:16:50;;;;;;;27.83;5.80;;;8.50;99.90;;;;;;5063447;28;20794;-73
2023/02/24 00:19:20;;;;;;;18.43;6.40;;;8.50;99.90;;;;;;5061528;28;20475;-73
2023/02/24 00:21:46;;;;;;;18.10;5.40;;;8.50;99.90;;;;;;5059876;28;20429;-73
2023/02/24 00:24:12;;;;;;;23.53;7.60;;;8.50;99.90;;;;;;5058010;28;20824;-73
2023/02/24 00:26:39;;;;;;;24.03;6.90;;;8.40;99.90;;;;;;5056439;28;20536;-73
2023/02/24 00:29:08;;;;;;;24.80;5.93;;;8.50;99.90;;;;;;5056785;28;20213;-73
2023/02/24 00:31:37;;;;;;;20.73;5.87;;;8.40;99.90;;;;;;5059820;28;20468;-73
2023/02/24 00:34:03;;;;;;;20.83;5.20;;;8.40;99.90;;;;;;5060513;28;20539;-73
2023/02/24 00:36:29;;;;;;;20.50;7.03;;;8.40;99.90;;;;;;5062029;28;20445;-73
2023/02/24 00:38:57;;;;;;;27.00;6.43;;;8.40;99.90;;;;;;5063920;28;20262;-73
2023/02/24 00:41:28;;;;;;;19.60;6.10;;;8.40;99.90;;;;;;5065431;28;20424;-73
2023/02/24 00:43:55;;;;;;;29.50;6.63;;;8.40;99.90;;;;;;5061740;28;20453;-73
2023/02/24 00:46:24;;;;;;;20.57;6.27;;;8.30;99.90;;;;;;5061293;28;20796;-73
2023/02/24 00:48:55;;;;;;;10.90;4.40;;;8.40;99.90;;;;;;5059689;28;20438;-73
2023/02/24 00:51:25;;;;;;;22.80;4.53;;;8.30;99.90;;;;;;5057616;28;20445;-72
2023/02/24 00:53:54;;;;;;;17.80;5.10;;;8.30;99.90;;;;;;5074721;28;20519;-71
2023/02/24 00:56:21;;;;;;;17.13;4.90;;;8.30;99.90;;;;;;5073909;28;20447;-72
2023/02/24 00:58:47;;;;;;;15.27;5.00;;;8.30;99.90;;;;;;5071958;28;20428;-72
2023/02/24 01:01:18;;;;;;;14.70;4.83;;;8.30;99.90;;;;;;5070062;28;20437;-72
2023/02/24 01:03:45;;;;;;;19.73;5.33;;;8.30;99.90;;;;;;5068601;28;20201;-71
2023/02/24 01:06:12;;;;;;;19.10;6.03;;;8.30;99.90;;;;;;5066905;28;20451;-71
2023/02/24 01:08:39;;;;;;;19.57;4.97;;;8.30;99.90;;;;;;5064368;28;20430;-71
2023/02/24 01:13:50;;;;;;;30.23;5.50;;;8.30;99.90;;;;;;5069048;28;20447;-71
2023/02/24 01:16:17;;;;;;;23.03;5.27;;;8.20;99.90;;;;;;5070638;28;20436;-70
2023/02/24 01:18:44;;;;;;;18.73;4.40;;;8.20;99.90;;;;;;5072346;28;20273;-72
2023/02/24 01:21:11;;;;;;;24.80;5.90;;;8.20;99.90;;;;;;5073649;28;20535;-73
2023/02/24 01:23:37;;;;;;;22.83;4.40;;;8.20;99.90;;;;;;5055444;28;20777;-73
2023/02/24 01:26:03;;;;;;;18.87;5.50;;;8.20;99.90;;;;;;5071967;28;20457;-73
2023/02/24 01:28:29;;;;;;;21.50;4.73;;;8.20;99.90;;;;;;5069701;28;20441;-73
2023/02/24 01:31:00;;;;;;;18.57;5.37;;;8.20;99.90;;;;;;5067986;28;20713;-73
2023/02/24 01:33:26;;;;;;;13.47;4.20;;;8.20;99.90;;;;;;5065841;28;20190;-74
2023/02/24 01:35:54;;;;;;;25.23;5.70;;;8.20;99.90;;;;;;5064158;28;20440;-73
2023/02/24 01:38:21;;;;;;;23.00;5.97;;;8.20;99.90;;;;;;5062412;28;20632;-73
2023/02/24 01:40:55;;;;;;;9.93;4.00;;;8.20;99.90;;;;;;5042562;28;20440;-74
2023/02/24 01:43:23;;;;;;;19.10;4.27;;;8.20;99.90;;;;;;5058454;28;20425;-73
2023/02/24 01:45:50;;;;;;;11.80;4.60;;;8.20;99.90;;;;;;5056690;28;20508;-73
2023/02/24 01:48:16;;;;;;;15.13;5.13;;;8.20;99.90;;;;;;5054900;28;20425;-73
2023/02/24 01:50:44;;;;;;;19.00;5.20;;;8.10;99.90;;;;;;5054853;28;20477;-73
2023/02/24 01:53:10;;;;;;;18.50;4.50;;;8.20;99.90;;;;;;5056877;28;20524;-73
2023/02/24 01:55:49;;;;;;;15.17;5.20;;;8.20;99.90;;;;;;5057996;28;20433;-73
2023/02/24 01:58:24;;;;;;;18.90;4.43;;;8.10;99.90;;;;;;5060782;28;20422;-72
2023/02/24 02:00:50;;;;;;;19.37;5.73;;;8.10;99.90;;;;;;5062304;28;20424;-73
2023/02/24 02:03:29;;;;;;;24.27;5.60;;;8.10;99.90;;;;;;5064143;28;20849;-73
2023/02/24 02:06:03;;;;;;;14.03;4.47;;;8.10;99.90;;;;;;5061720;28;20949;-73
2023/02/24 02:08:30;;;;;;;21.80;5.00;;;8.10;99.90;;;;;;5067789;28;20838;-73
2023/02/24 02:11:01;;;;;;;24.83;5.77;;;8.10;99.90;;;;;;5069260;28;20967;-73
2023/02/24 02:13:27;;;;;;;14.93;4.90;;;8.10;99.90;;;;;;5071337;28;20804;-72
2023/02/24 02:16:07;;;;;;;18.50;5.80;;;8.10;99.90;;;;;;5072707;28;20548;-72
2023/02/24 02:19:17;;;;;;;27.90;6.30;;;8.10;99.90;;;;;;5072382;28;20478;-71
2023/02/24 02:22:15;;;;;;;12.57;4.80;;;8.10;99.90;;;;;;5037945;28;20457;-72
2023/02/24 02:25:06;;;;;;;15.30;5.23;;;8.10;99.90;;;;;;5004643;28;20490;-72
2023/02/24 02:27:46;;;;;;;21.17;5.70;;;8.00;99.90;;;;;;5061118;28;20950;-72
2023/02/24 02:30:42;;;;;;;13.53;5.23;;;8.00;99.90;;;;;;5063631;28;20475;-72
2023/02/24 02:33:49;;;;;;;17.43;5.37;;;8.00;99.90;;;;;;5065281;28;21003;-72
2023/02/24 02:36:26;;;;;;;18.70;5.20;;;8.00;99.90;;;;;;5058771;28;20931;-72
2023/02/24 02:39:02;;;;;;;17.37;6.60;;;8.00;99.90;;;;;;5056929;28;20916;-72
2023/02/24 02:41:34;;;;;;;24.60;5.60;;;8.00;99.90;;;;;;5055129;28;20441;-72
2023/02/24 02:44:08;;;;;;;19.03;6.27;;;7.90;99.90;;;;;;5053483;28;20438;-72
2023/02/24 02:46:42;;;;;;;30.17;6.47;;;7.90;99.90;;;;;;5054905;28;20437;-73
2023/02/24 02:49:19;;;;;;;21.23;5.83;;;7.90;99.90;;;;;;5065902;28;20464;-73
2023/02/24 02:51:56;;;;;;;19.63;6.13;;;7.90;99.90;;;;;;5067588;28;20441;-73
2023/02/24 02:54:34;;;;;;;14.43;4.73;;;7.80;99.90;;;;;;5065223;28;20456;-73
2023/02/24 02:57:07;;;;;;;21.93;6.20;;;7.80;99.90;;;;;;5062695;28;20448;-73
2023/02/24 02:59:36;;;;;;;24.30;6.40;;;7.80;99.90;;;;;;5061396;28;20444;-73
2023/02/24 03:02:13;;;;;;;19.40;6.20;;;7.80;99.90;;;;;;5059754;28;20447;-73
2023/02/24 03:04:46;;;;;;;19.03;7.20;;;7.70;99.90;;;;;;5068165;28;20421;-71
2023/02/24 03:07:16;;;;;;;22.40;5.67;;;7.70;99.90;;;;;;5054854;28;20441;-71
2023/02/24 03:09:46;;;;;;;27.13;5.73;;;7.70;99.90;;;;;;5053812;28;20570;-73
2023/02/24 03:12:17;;;;;;;16.47;6.53;;;7.70;99.90;;;;;;5053295;28;20429;-72
2023/02/24 03:14:50;;;;;;;25.57;7.73;;;7.70;99.90;;;;;;5069910;28;20441;-72
2023/02/24 03:17:21;;;;;;;16.53;4.73;;;7.70;99.90;;;;;;5057278;28;20938;-73
2023/02/24 03:19:53;;;;;;;15.40;4.53;;;7.70;99.90;;;;;;5058666;28;20946;-72
2023/02/24 03:22:26;;;;;;;14.33;5.80;;;7.60;99.90;;;;;;5060727;28;20442;-72
2023/02/24 03:24:52;;;;;;;21.40;5.80;;;7.60;99.90;;;;;;5062824;28;20782;-72
2023/02/24 03:27:26;;;;;;;34.60;8.33;;;7.60;99.90;;;;;;5064195;28;20429;-73
2023/02/24 03:29:57;;;;;;;24.17;6.60;;;7.60;99.90;;;;;;5066190;28;20498;-73
2023/02/24 03:32:42;;;;;;;26.87;6.03;;;7.60;99.90;;;;;;5056764;28;20854;-72
2023/02/24 03:35:14;;;;;;;19.83;6.17;;;7.60;99.90;;;;;;5069970;28;20451;-72
2023/02/24 03:37:39;;;;;;;11.87;4.20;;;7.60;99.90;;;;;;5053239;28;20785;-73
2023/02/24 05:30:31;;;;;;;7.40;2.30;;;7.10;99.90;;;;;;6034769;23;20417;-71
2023/02/24 05:32:57;;;;;;;10.80;2.97;;;7.00;99.90;;;;;;5059743;28;20448;-73
2023/02/24 05:35:23;;;;;;;14.17;3.70;;;7.10;99.90;;;;;;5060017;28;20472;-71
2023/02/24 05:37:50;;;;;;;14.43;3.27;;;7.00;99.90;;;;;;5060876;28;20949;-72
2023/02/24 05:40:19;;;;;;;13.80;4.27;;;7.00;99.90;;;;;;5062148;28;20444;-71
2023/02/24 05:42:46;;;;;;;15.37;3.13;;;7.00;99.90;;;;;;5061817;28;20451;-71
2023/02/24 05:45:11;;;;;;;16.33;4.80;;;7.00;99.90;;;;;;5060706;28;20520;-72
2023/02/24 05:47:38;;;;;;;8.13;4.53;;;7.10;99.90;;;;;;5058769;28;20179;-72
2023/02/24 05:50:05;;;;;;;8.83;3.70;;;7.10;99.90;;;;;;5056882;28;20702;-71
2023/02/24 05:52:30;;;;;;;9.80;4.20;;;7.10;99.90;;;;;;5055154;28;20516;-73
2023/02/24 05:54:56;;;;;;;16.30;5.17;;;7.10;99.90;;;;;;5057132;28;20524;-71
2023/02/24 05:57:26;;;;;;;14.37;4.37;;;7.10;99.90;;;;;;5066928;28;20592;-71
2023/02/24 05:59:52;;;;;;;11.83;3.50;;;7.10;99.90;;;;;;5068919;28;20524;-71
2023/02/24 06:02:26;;;;;;;8.43;4.50;;;7.00;99.90;;;;;;5068233;28;20429;-70
2023/02/24 06:04:52;;;;;;;13.37;4.70;;;7.00;99.90;;;;;;5063553;28;20691;-72
2023/02/24 06:07:33;;;;;;;7.37;3.90;;;7.00;99.90;;;;;;5066404;28;20490;-70
2023/02/24 06:09:59;;;;;;;9.53;3.77;;;7.10;99.90;;;;;;5062733;28;20500;-71
2023/02/24 06:12:32;;;;;;;9.77;4.07;;;7.00;99.90;;;;;;5065506;28;20432;-71
2023/02/24 06:14:58;;;;;;;18.43;4.60;;;7.00;99.90;;;;;;5065229;28;20528;-70
2023/02/24 06:17:25;;;;;;;7.30;3.70;;;7.10;99.90;;;;;;5067149;28;20516;-70
2023/02/24 06:19:52;;;;;;;10.30;3.70;;;7.20;99.90;;;;;;5068311;28;20449;-70
2023/02/24 06:22:21;;;;;;;11.23;3.70;;;7.10;99.90;;;;;;5065722;28;20768;-70
2023/02/24 06:24:48;;;;;;;14.53;4.00;;;7.10;99.90;;;;;;5064179;28;20501;-70
2023/02/24 06:27:18;;;;;;;11.80;4.00;;;7.10;99.90;;;;;;5068838;28;20497;-70
2023/02/24 06:29:45;;;;;;;14.50;4.93;;;7.10;99.90;;;;;;5067873;28;20847;-71
2023/02/24 06:32:11;;;;;;;10.80;5.70;;;7.20;99.90;;;;;;5065862;28;20839;-71
2023/02/24 06:34:38;;;;;;;13.00;4.67;;;7.30;99.90;;;;;;5064119;28;20425;-71
2023/02/24 06:37:06;;;;;;;10.40;4.10;;;7.40;99.90;;;;;;5062091;28;20417;-71
2023/02/24 06:39:33;;;;;;;14.57;4.50;;;7.40;99.90;;;;;;5060747;28;20428;-71
2023/02/24 06:42:04;;;;;;;11.30;4.00;;;7.50;99.90;;;;;;5058945;28;20558;-71
2023/02/24 06:44:34;;;;;;;8.73;4.33;;;7.40;99.90;;;;;;5068982;28;20436;-71
2023/02/24 06:47:00;;;;;;;8.60;4.30;;;7.50;99.90;;;;;;5055060;28;20429;-72
2023/02/24 06:49:27;;;;;;;16.43;5.73;;;7.40;99.90;;;;;;5053563;28;20461;-71
2023/02/24 06:51:56;;;;;;;14.97;4.90;;;7.40;99.90;;;;;;5054645;28;20444;-71
2023/02/24 06:54:29;;;;;;;14.77;4.80;;;7.40;99.90;;;;;;5056142;28;20424;-71
2023/02/24 06:56:56;;;;;;;6.57;4.07;;;7.30;99.90;;;;;;5058137;28;20432;-72
2023/02/24 06:59:27;;;;;;;11.50;4.03;;;7.30;99.90;;;;;;5066958;28;20428;-72
2023/02/24 07:01:53;;;;;;;12.70;3.43;;;7.30;99.90;;;;;;5064361;28;20783;-72
2023/02/24 07:04:19;;;;;;;17.20;4.73;;;7.30;99.90;;;;;;5063746;28;20441;-72
2023/02/24 07:06:51;;;;;;;8.30;3.60;;;7.40;99.90;;;;;;5065241;28;20425;-71
2023/02/24 07:09:19;;;;;;;10.00;4.33;;;7.40;99.90;;;;;;5067659;28;20586;-71
2023/02/24 07:11:50;;;;;;;16.37;4.40;;;7.40;99.90;;;;;;5057754;28;20431;-71
2023/02/24 07:14:17;;;;;;;8.17;4.57;;;7.40;99.90;;;;;;5070630;28;20443;-72
2023/02/24 07:16:44;;;;;;;12.47;5.10;;;7.50;99.90;;;;;;5058449;28;20512;-71
2023/02/24 07:19:12;;;;;;;9.93;3.60;;;7.50;99.90;;;;;;5053781;28;20432;-71
2023/02/24 07:21:42;;;;;;;11.47;3.60;;;7.50;99.90;;;;;;5055844;28;20438;-71
2023/02/24 07:24:12;;;;;;;17.33;5.63;;;7.60;99.90;;;;;;5067191;28;20439;-69
2023/02/24 07:26:40;;;;;;;11.17;3.80;;;7.60;99.90;;;;;;5061888;28;20497;-71
2023/02/24 07:29:12;;;;;;;11.13;4.40;;;7.50;99.90;;;;;;5061664;28;20429;-71
2023/02/24 07:31:38;;;;;;;11.90;3.67;;;7.50;99.90;;;;;;5063203;28;20479;-73
2023/02/24 07:34:05;;;;;;;12.70;4.80;;;7.40;99.90;;;;;;5069672;28;20437;-70
2023/02/24 07:36:37;;;;;;;11.23;4.10;;;7.30;99.90;;;;;;5050497;28;20429;-70
2023/02/24 07:39:06;;;;;;;11.60;3.60;;;7.20;99.90;;;;;;5069692;28;20421;-70
2023/02/24 07:41:33;;;;;;;11.43;4.30;;;7.20;99.90;;;;;;5066456;28;20424;-71
2023/02/24 07:44:02;;;;;;;10.90;3.97;;;7.20;99.90;;;;;;5066486;28;20421;-71
2023/02/24 07:46:28;;;;;;;9.73;3.50;;;7.20;99.90;;;;;;5045748;28;20474;-70
2023/02/24 07:48:55;;;;;;;15.17;4.90;;;7.20;99.90;;;;;;5067456;28;20788;-70
2023/02/24 07:51:23;;;;;;;14.27;4.57;;;7.10;99.90;;;;;;5067598;28;20446;-70
2023/02/24 07:53:51;;;;;;;13.30;3.80;;;7.30;99.90;;;;;;5071652;28;20474;-71
2023/02/24 07:56:19;;;;;;;11.77;3.90;;;7.30;99.90;;;;;;5070617;28;20443;-69
2023/02/24 07:58:49;;;;;;;17.60;4.03;;;7.20;99.90;;;;;;5065157;28;20429;-69
2023/02/24 08:01:22;;;;;;;10.70;3.80;;;7.30;99.90;;;;;;5063639;28;20478;-69
2023/02/24 08:03:54;;;;;;;8.63;4.40;;;7.20;99.90;;;;;;5069355;28;20428;-68
2023/02/24 08:06:26;;;;;;;17.53;5.73;;;7.20;99.90;;;;;;5063600;28;20486;-68
2023/02/24 08:08:58;;;;;;;15.43;6.30;;;7.10;99.90;;;;;;5056826;28;20525;-68
2023/02/24 08:11:34;;;;;;;11.07;4.43;;;7.10;99.90;;;;;;5068958;28;20831;-68
2023/02/24 08:14:09;;;;;;;13.97;4.60;;;7.10;99.90;;;;;;5074063;28;20420;-68
2023/02/24 08:16:39;;;;;;;11.83;4.27;;;7.10;99.90;;;;;;5056867;28;20443;-68
2023/02/24 08:19:06;;;;;;;17.10;5.00;;;7.10;99.90;;;;;;5058105;28;20523;-68
2023/02/24 08:21:37;;;;;;;16.60;3.97;;;7.10;99.90;;;;;;5059869;28;20561;-68
2023/02/24 08:24:04;;;;;;;10.10;3.60;;;7.20;99.90;;;;;;5064025;28;20509;-68
2023/02/24 08:26:30;;;;;;;15.40;4.37;;;7.20;99.90;;;;;;5063438;28;20688;-69
2023/02/24 08:28:56;;;;;;;8.07;3.83;;;7.10;99.90;;;;;;5062606;28;20448;-68
2023/02/24 08:31:22;;;;;;;14.70;4.10;;;7.10;99.90;;;;;;5041953;28;20484;-68
2023/02/24 08:33:48;;;;;;;8.70;2.80;;;7.10;99.90;;;;;;5058161;28;20440;-70
2023/02/24 08:36:20;;;;;;;9.63;3.10;;;7.10;99.90;;;;;;5070308;28;20482;-69
2023/02/24 08:38:50;;;;;;;15.83;2.90;;;7.10;99.90;;;;;;5053223;28;20190;-72
2023/02/24 08:41:19;;;;;;;9.83;2.80;;;7.10;99.90;;;;;;5067718;28;20439;-68
2023/02/24 08:43:46;;;;;;;11.07;3.53;;;7.10;99.90;;;;;;5068846;28;20938;-68
2023/02/24 08:46:12;;;;;;;10.40;3.13;;;7.10;99.90;;;;;;5068214;28;20427;-69
2023/02/24 08:48:59;;;;;;;5.20;2.70;;;7.20;99.90;;;;;;5064206;28;20459;-69
2023/02/24 08:51:29;;;;;;;9.40;3.37;;;7.00;99.90;;;;;;5063619;28;20691;-69
2023/02/24 08:53:58;;;;;;;11.03;3.37;;;7.00;99.90;;;;;;5065393;28;20444;-70
2023/02/24 08:56:29;;;;;;;11.67;3.53;;;7.00;99.90;;;;;;5070879;28;20436;-70
2023/02/24 08:58:57;;;;;;;10.97;2.70;;;7.00;99.90;;;;;;5069900;28;20420;-71
2023/02/24 09:01:34;;;;;;;7.27;3.00;;;7.00;99.90;;;;;;5070999;28;20577;-71
2023/02/24 09:04:05;;;;;;;10.47;3.20;;;7.00;99.90;;;;;;5069418;28;20436;-71
2023/02/24 09:06:35;;;;;;;5.50;3.17;;;7.20;99.90;;;;;;5066457;28;20566;-71
2023/02/24 09:09:44;;;;;;;7.20;3.13;;;7.00;99.90;;;;;;5067020;28;20440;-71
2023/02/24 09:11:55;;;;;;;17.10;3.10;;;7.00;99.90;;;;;;5058777;28;20523;-71
2023/02/24 09:14:25;;;;;;;7.27;3.07;;;7.00;99.90;;;;;;5070168;28;20440;-70
2023/02/24 09:17:09;;;;;;;13.63;3.67;;;7.10;99.90;;;;;;5071798;28;20436;-70
2023/02/24 09:19:39;;;;;;;3.83;2.60;;;7.00;99.90;;;;;;5068588;28;20826;-70
2023/02/24 09:22:30;;;;;;;7.43;3.67;;;7.00;99.90;;;;;;5070099;28;20865;-70
2023/02/24 09:25:16;;;;;;;9.67;4.23;;;7.00;99.90;;;;;;5067308;28;20432;-70
2023/02/24 09:27:51;;;;;;;8.13;3.47;;;7.00;99.90;;;;;;5069400;28;20421;-69
2023/02/24 09:30:34;;;;;;;10.07;4.03;;;7.00;99.90;;;;;;5056399;28;20587;-70
2023/02/24 09:33:04;;;;;;;10.03;4.40;;;7.10;99.90;;;;;;5072973;28;20804;-71
2023/02/24 09:35:30;;;;;;;14.57;4.53;;;7.00;99.90;;;;;;5054837;28;20430;-70
2023/02/24 09:38:04;;;;;;;8.00;4.13;;;7.00;99.90;;;;;;5056472;28;20935;-70
2023/02/24 09:40:38;;;;;;;17.30;4.40;;;7.10;99.90;;;;;;5058240;28;20694;-70
2023/02/24 09:43:09;;;;;;;9.03;4.23;;;7.10;99.90;;;;;;5066390;28;20566;-70
2023/02/24 09:45:38;;;;;;;9.90;5.67;;;6.90;99.90;;;;;;5061770;28;20425;-70
2023/02/24 09:48:20;;;;;;;13.60;4.83;;;7.00;99.90;;;;;;5063860;28;20492;-70
2023/02/24 09:50:59;;;;;;;12.13;4.80;;;6.90;99.90;;;;;;5060728;28;20477;-70
2023/02/24 09:53:28;;;;;;;13.90;4.40;;;7.00;99.90;;;;;;5067212;28;20507;-70
2023/02/24 09:56:03;;;;;;;6.57;4.17;;;7.00;99.90;;;;;;5056754;28;20445;-71
2023/02/24 09:58:51;;;;;;;14.50;3.90;;;7.10;99.90;;;;;;5055061;28;20934;-71
2023/02/24 10:01:49;;;;;;;9.33;4.23;;;7.00;99.90;;;;;;5053609;28;20425;-70
2023/02/24 10:04:53;;;;;;;9.87;5.80;;;7.00;99.90;;;;;;5069091;28;20462;-70
2023/02/24 10:07:37;;;;;;;7.10;3.63;;;7.00;99.90;;;;;;5068369;28;20515;-69
2023/02/24 10:10:26;;;;;;;12.40;4.30;;;7.10;99.90;;;;;;5059132;28;20464;-70
2023/02/24 10:13:29;;;;;;;17.27;4.27;;;7.00;99.90;;;;;;5061404;28;20903;-70
2023/02/24 10:18:27;;;;;;;12.90;3.80;;;6.90;99.90;;;;;;5065144;28;20476;-72
2023/02/24 10:21:14;;;;;;;9.13;3.53;;;6.90;99.90;;;;;;5066708;28;20445;-70
2023/02/24 10:23:58;;;;;;;9.63;4.47;;;7.00;99.90;;;;;;5058893;28;20436;-71
2023/02/24 10:26:43;;;;;;;9.63;3.30;;;7.00;99.90;;;;;;5053761;28;20966;-69
2023/02/24 10:29:28;;;;;;;13.00;4.87;;;7.00;99.90;;;;;;5034754;28;20938;-69
2023/02/24 10:32:22;;;;;;;9.27;3.97;;;7.00;99.90;;;;;;5054499;28;20479;-69
2023/02/24 10:34:51;;;;;;;11.60;4.30;;;6.80;99.90;;;;;;5049926;28;20495;-69
2023/02/24 10:37:21;;;;;;;13.07;4.57;;;6.90;99.90;;;;;;5065438;28;20432;-69
2023/02/24 10:39:51;;;;;;;10.40;3.57;;;6.90;99.90;;;;;;5063713;28;20428;-69
2023/02/24 10:42:30;;;;;;;12.13;4.13;;;6.70;99.90;;;;;;5061557;28;20447;-69
2023/02/24 10:45:16;;;;;;;10.67;4.90;;;6.60;99.90;;;;;;5065667;28;20952;-70
2023/02/24 10:47:43;;;;;;;13.60;4.87;;;6.60;99.90;;;;;;5069726;28;20436;-71
2023/02/24 10:50:31;;;;;;;10.47;4.33;;;6.70;99.90;;;;;;5068354;28;20472;-71
2023/02/24 11:01:39;;;;;;;10.93;4.10;;;6.60;99.90;;;;;;5055972;28;20440;-71
2023/02/24 11:04:31;;;;;;;21.23;4.30;;;6.60;99.90;;;;;;5063397;28;20416;-70
2023/02/24 11:07:12;;;;;;;11.97;4.13;;;6.60;99.90;;;;;;5061165;28;20836;-71
2023/02/24 11:09:51;;;;;;;10.20;3.90;;;6.60;99.90;;;;;;5061920;28;20525;-70
2023/02/24 11:18:09;;;;;;;10.53;3.90;;;6.70;99.90;;;;;;5055881;28;20556;-70
2023/02/24 11:20:59;;;;;;;13.43;4.03;;;6.70;99.90;;;;;;5053510;28;20421;-71
2023/02/24 11:23:41;;;;;;;13.83;4.40;;;6.60;99.90;;;;;;5071280;28;20437;-70
2023/02/24 11:26:31;;;;;;;8.30;4.00;;;6.60;99.90;;;;;;5069662;28;20433;-71
2023/02/24 11:29:40;;;;;;;14.87;4.20;;;6.50;99.90;;;;;;5066913;28;20435;-72
2023/02/24 11:32:41;;;;;;;8.70;3.60;;;6.40;99.90;;;;;;5064873;28;20567;-71
2023/02/24 11:35:19;;;;;;;12.60;4.63;;;6.30;99.90;;;;;;5043386;28;20449;-71
2023/02/24 11:38:00;;;;;;;11.03;3.87;;;6.40;99.90;;;;;;5066473;28;20498;-70
2023/02/24 11:40:31;;;;;;;21.20;4.43;;;6.40;99.90;;;;;;5067306;28;20421;-70
2023/02/24 11:43:19;;;;;;;6.73;3.80;;;6.40;99.90;;;;;;5064333;28;20433;-69
2023/02/24 11:45:53;;;;;;;8.50;3.40;;;6.50;99.90;;;;;;5069282;28;21252;-70
2023/02/24 11:48:34;;;;;;;7.03;3.90;;;6.50;99.90;;;;;;5066390;28;20519;-69
2023/02/24 11:51:15;;;;;;;5.10;3.37;;;6.50;99.90;;;;;;5070899;28;20474;-68
2023/02/24 11:53:49;;;;;;;5.10;4.00;;;6.40;99.90;;;;;;5053372;28;20417;-69
2023/02/24 11:56:27;;;;;;;6.87;3.63;;;6.50;99.90;;;;;;5067695;28;20447;-69
2023/02/24 11:59:07;;;;;;;13.90;3.87;;;6.50;99.90;;;;;;5057191;28;20508;-70
2023/02/24 12:02:04;;;;;;;12.07;4.60;;;6.40;99.90;;;;;;5059560;28;20965;-70
2023/02/24 12:04:59;;;;;;;38.73;7.17;;;6.40;99.90;;;;;;5062822;28;20449;-70
2023/02/24 12:07:38;;;;;;;14.17;5.60;;;6.40;99.90;;;;;;5062560;28;20441;-70
2023/02/24 12:10:18;;;;;;;16.98;7.47;;;6.40;99.90;;;;;;5064023;28;20445;-69
2023/02/24 12:12:46;;;;;;;12.13;6.10;;;6.50;99.90;;;;;;5067690;28;20206;-69
2023/02/24 12:15:14;;;;;;;8.43;6.23;;;6.60;99.90;;;;;;5070042;28;20471;-69
2023/02/24 12:17:48;;;;;;;17.20;6.50;;;6.60;99.90;;;;;;5067340;28;20437;-69
2023/02/24 12:20:24;;;;;;;8.93;5.43;;;6.70;99.90;;;;;;5070237;28;20424;-69
2023/02/24 12:22:57;;;;;;;13.23;6.33;;;6.60;99.90;;;;;;5068599;28;20439;-69
2023/02/24 12:25:31;;;;;;;7.23;6.27;;;6.70;99.90;;;;;;5066347;28;20428;-68
2023/02/24 12:27:56;;;;;;;13.37;5.80;;;6.60;99.90;;;;;;5059280;28;20431;-69
2023/02/24 12:30:47;;;;;;;10.47;5.47;;;6.70;99.90;;;;;;5060851;28;20566;-69
2023/02/24 12:33:34;;;;;;;17.43;5.97;;;6.50;99.90;;;;;;5062914;28;20691;-69
2023/02/24 12:36:29;;;;;;;13.83;6.00;;;6.40;99.90;;;;;;5058739;28;20821;-68
2023/02/24 12:39:15;;;;;;;11.23;6.70;;;6.30;99.90;;;;;;5034620;28;20793;-69
2023/02/24 12:42:17;;;;;;;9.13;6.10;;;6.40;99.90;;;;;;5057999;28;20432;-69
2023/02/24 12:45:01;;;;;;;11.33;6.40;;;6.40;99.90;;;;;;5073476;28;20480;-69
2023/02/24 12:47:57;;;;;;;15.90;7.03;;;6.30;99.90;;;;;;5073368;28;20957;-69
2023/02/24 12:50:47;;;;;;;18.63;7.60;;;6.30;99.90;;;;;;5069528;28;20472;-69
2023/02/24 12:53:41;;;;;;;13.93;7.90;;;6.10;99.90;;;;;;5063975;28;20434;-69
2023/02/24 12:56:27;;;;;;;21.53;8.70;;;6.10;99.90;;;;;;5063051;28;20428;-68
2023/02/24 12:59:01;;;;;;;9.67;7.60;;;6.20;99.90;;;;;;5065189;28;20927;-69
2023/02/24 13:01:36;;;;;;;14.77;7.50;;;6.20;99.90;;;;;;5066992;28;20428;-69
2023/02/24 13:04:28;;;;;;;16.20;8.43;;;6.20;99.90;;;;;;5068827;28;20433;-69
2023/02/24 13:07:08;;;;;;;9.60;6.77;;;6.20;99.90;;;;;;5067040;28;20946;-69
2023/02/24 13:09:45;;;;;;;11.17;7.00;;;6.20;99.90;;;;;;5056852;28;20468;-69
2023/02/24 13:12:23;;;;;;;14.73;7.93;;;6.20;99.90;;;;;;5055308;28;20954;-69
2023/02/24 13:14:49;;;;;;;10.93;7.70;;;6.10;99.90;;;;;;5056586;28;20425;-69
2023/02/24 13:17:17;;;;;;;9.10;7.17;;;6.10;99.90;;;;;;5068520;28;20464;-69
2023/02/24 13:19:44;;;;;;;11.23;7.17;;;6.00;99.90;;;;;;5069439;28;20514;-69
2023/02/24 13:22:12;;;;;;;10.23;8.00;;;6.10;99.90;;;;;;5067628;28;20467;-69
2023/02/24 13:24:54;;;;;;;15.70;7.90;;;5.90;99.90;;;;;;5066089;28;20453;-69
2023/02/24 13:27:27;;;;;;;18.17;9.43;;;6.00;99.90;;;;;;5063952;28;20519;-69
2023/02/24 13:29:54;;;;;;;13.57;7.30;;;6.00;99.90;;;;;;5067234;28;20457;-69
2023/02/24 13:32:33;;;;;;;12.13;6.53;;;6.10;99.90;;;;;;5068735;28;20480;-69
2023/02/24 13:35:03;;;;;;;20.50;7.20;;;6.10;99.90;;;;;;5070192;28;20424;-69
2023/02/24 13:37:37;;;;;;;7.47;6.57;;;6.00;99.90;;;;;;5069089;28;20512;-70
2023/02/24 13:40:15;;;;;;;13.57;5.63;;;6.10;99.90;;;;;;5066912;28;20428;-70
2023/02/24 13:42:57;;;;;;;10.17;5.63;;;6.10;99.90;;;;;;5060895;28;20432;-69
2023/02/24 13:45:30;;;;;;;11.13;6.33;;;5.90;99.90;;;;;;5058135;28;20482;-69
2023/02/24 13:48:18;;;;;;;10.17;6.90;;;6.00;99.90;;;;;;5060332;28;20432;-69
2023/02/24 13:51:20;;;;;;;10.73;7.07;;;6.00;99.90;;;;;;5063570;28;20491;-69
2023/02/24 13:54:01;;;;;;;13.60;7.30;;;6.00;99.90;;;;;;5063998;28;20424;-69
2023/02/24 13:56:43;;;;;;;11.07;6.40;;;5.90;99.90;;;;;;5061876;28;20428;-69
2023/02/24 13:59:35;;;;;;;11.63;6.83;;;6.00;99.90;;;;;;5059878;28;20475;-70
2023/02/24 14:02:14;;;;;;;9.83;7.30;;;5.90;99.90;;;;;;5057928;28;20780;-69
2023/02/24 14:04:55;;;;;;;12.07;7.30;;;5.90;99.90;;;;;;5055910;28;20802;-69
2023/02/24 14:07:34;;;;;;;19.63;8.50;;;6.00;99.90;;;;;;5065484;28;20430;-69
2023/02/24 14:10:04;;;;;;;10.67;8.00;;;5.90;99.90;;;;;;5071192;28;20452;-69
2023/02/24 14:12:33;;;;;;;9.10;8.20;;;6.00;99.90;;;;;;5060512;28;20760;-70
2023/02/24 14:14:59;;;;;;;12.93;8.30;;;6.00;99.90;;;;;;5068051;28;20430;-68
2023/02/24 14:17:35;;;;;;;9.63;7.17;;;5.90;99.90;;;;;;5066113;28;20543;-69
2023/02/24 14:20:16;;;;;;;14.00;9.07;;;6.00;99.90;;;;;;5063874;28;20181;-69
2023/02/24 14:22:42;;;;;;;16.00;8.27;;;6.10;99.90;;;;;;5065006;28;20440;-72
2023/02/24 14:25:10;;;;;;;13.97;10.07;;;6.10;99.90;;;;;;5066439;28;20446;-70
2023/02/24 14:27:37;;;;;;;13.80;9.07;;;6.10;99.90;;;;;;5058318;28;20912;-68
2023/02/24 14:30:04;;;;;;;16.40;9.73;;;6.00;99.90;;;;;;5056513;28;20515;-68
2023/02/24 14:32:32;;;;;;;16.40;10.90;;;6.10;99.90;;;;;;5062235;28;20467;-68
2023/02/24 14:34:58;;;;;;;19.27;10.60;;;6.10;99.90;;;;;;5068713;28;20420;-69
2023/02/24 14:37:27;;;;;;;17.10;10.23;;;6.10;99.90;;;;;;5068513;28;20881;-68
2023/02/24 14:39:55;;;;;;;17.57;10.50;;;6.10;99.90;;;;;;5069101;28;20170;-68
2023/02/24 14:42:20;;;;;;;13.93;11.80;;;6.00;99.90;;;;;;5070126;28;20441;-68
2023/02/24 14:44:57;;;;;;;20.30;12.27;;;6.10;99.90;;;;;;5071862;28;20841;-68
2023/02/24 14:47:27;;;;;;;20.50;12.10;;;6.20;99.90;;;;;;5069896;28;20213;-70
2023/02/24 14:49:52;;;;;;;19.70;12.10;;;6.20;99.90;;;;;;5068526;28;20815;-71
2023/02/24 14:52:26;;;;;;;17.33;10.97;;;6.30;99.90;;;;;;5065719;28;20454;-71
2023/02/24 14:55:18;;;;;;;18.07;12.27;;;6.40;99.90;;;;;;5063022;28;20230;-71
2023/02/24 14:57:47;;;;;;;14.73;10.43;;;6.50;99.90;;;;;;5055803;28;20948;-68
2023/02/24 15:00:22;;;;;;;27.70;13.27;;;6.50;99.90;;;;;;5058934;28;20437;-69
2023/02/24 15:03:17;;;;;;;18.80;12.43;;;6.60;99.90;;;;;;5061333;28;20922;-68
2023/02/24 15:05:45;;;;;;;14.80;10.20;;;6.60;99.90;;;;;;5054093;28;21009;-69
2023/02/24 15:08:31;;;;;;;17.30;12.23;;;6.60;99.90;;;;;;5063198;28;20822;-69
2023/02/24 15:10:57;;;;;;;17.03;11.93;;;6.70;99.90;;;;;;5066446;28;20838;-68
2023/02/24 15:13:32;;;;;;;19.73;12.23;;;6.70;99.90;;;;;;5064643;28;20492;-68
2023/02/24 15:16:05;;;;;;;20.70;13.13;;;6.60;99.90;;;;;;5064554;28;20458;-69
2023/02/24 15:18:30;;;;;;;23.30;12.60;;;6.60;99.90;;;;;;5061733;28;20419;-68
2023/02/24 15:21:04;;;;;;;21.70;12.53;;;6.70;99.90;;;;;;5065195;28;20495;-69
2023/02/24 15:23:32;;;;;;;20.23;12.13;;;6.70;99.90;;;;;;5058132;28;20182;-69
2023/02/24 15:25:59;;;;;;;29.80;15.00;;;6.70;99.90;;;;;;5055654;28;20428;-71
2023/02/24 15:28:33;;;;;;;23.77;13.80;;;6.60;99.90;;;;;;5056751;28;20429;-70
2023/02/24 15:31:03;;;;;;;31.57;16.20;;;6.60;99.90;;;;;;5062677;28;20485;-70
2023/02/24 15:33:41;;;;;;;22.40;14.57;;;6.60;99.90;;;;;;5067420;28;20428;-70